createdAt,value
2023-01-29T00:01:55.929Z,865.55
2023-01-29T00:04:23.138Z,860.22
2023-01-29T00:06:49.769Z,863.92
2023-01-29T00:09:16.363Z,856.67
2023-01-29T00:11:42.984Z,856.78
2023-01-29T00:14:09.788Z,863.97
2023-01-29T00:16:36.398Z,864.40
2023-01-29T00:19:03.512Z,861.65
2023-01-29T00:21:31.103Z,859.78
2023-01-29T00:23:58.175Z,859.40
2023-01-29T00:26:25.014Z,863.30
2023-01-29T00:28:51.976Z,872.25
2023-01-29T00:31:23.382Z,874.72
2023-01-29T00:33:50.078Z,883.97
2023-01-29T00:36:18.349Z,864.80
2023-01-29T00:38:44.950Z,871.80
2023-01-29T00:41:34.767Z,866.92
2023-01-29T00:44:20.514Z,868.33
2023-01-29T00:46:47.102Z,874.13
2023-01-29T00:49:13.696Z,875.38
2023-01-29T00:51:40.316Z,874.75
2023-01-29T00:54:07.179Z,873.38
2023-01-29T00:56:37.192Z,867.53
2023-01-29T00:59:04.650Z,873.58
2023-01-29T01:01:49.980Z,868.60
2023-01-29T01:04:16.520Z,863.40
2023-01-29T01:06:43.076Z,864.17
2023-01-29T01:09:29.539Z,870.03
2023-01-29T01:11:56.180Z,867.47
2023-01-29T01:14:22.716Z,867.22
2023-01-29T01:16:49.543Z,877.15
2023-01-29T01:19:16.216Z,882.90
2023-01-29T01:21:48.208Z,878.55
2023-01-29T01:24:15.392Z,879.80
2023-01-29T01:26:41.999Z,877.92
2023-01-29T01:29:09.191Z,886.50
2023-01-29T01:31:35.854Z,883.97
2023-01-29T01:34:02.475Z,871.78
2023-01-29T01:36:31.468Z,877.00
2023-01-29T01:38:58.623Z,871.67
2023-01-29T01:41:25.657Z,869.22
2023-01-29T01:44:00.784Z,872.22
2023-01-29T01:46:33.750Z,880.67
2023-01-29T01:49:04.452Z,877.13
2023-01-29T01:51:32.822Z,881.63
2023-01-29T01:54:19.145Z,881.23
2023-01-29T01:56:49.416Z,886.20
2023-01-29T01:59:18.838Z,889.42
2023-01-29T02:01:51.227Z,888.20
2023-01-29T02:04:39.384Z,881.22
2023-01-29T02:07:26.795Z,875.05
2023-01-29T02:10:12.489Z,880.45
2023-01-29T02:12:39.452Z,876.47
2023-01-29T02:15:07.050Z,876.92
2023-01-29T02:17:33.593Z,877.47
2023-01-29T02:20:00.140Z,878.95
2023-01-29T02:22:56.447Z,874.97
2023-01-29T02:25:47.994Z,879.83
2023-01-29T02:28:40.719Z,873.65
2023-01-29T02:31:31.957Z,884.92
2023-01-29T02:34:24.628Z,876.63
2023-01-29T02:37:00.436Z,871.13
2023-01-29T02:39:37.911Z,873.08
2023-01-29T02:42:35.874Z,872.15
2023-01-29T02:45:16.075Z,877.78
2023-01-29T02:47:48.587Z,871.35
2023-01-29T02:50:20.080Z,875.40
2023-01-29T02:52:58.787Z,877.83
2023-01-29T02:55:38.725Z,873.80
2023-01-29T02:58:12.082Z,881.70
2023-01-29T03:00:45.136Z,875.60
2023-01-29T03:03:21.345Z,876.88
2023-01-29T03:06:06.497Z,884.00
2023-01-29T03:08:43.232Z,886.45
2023-01-29T03:11:15.222Z,888.67
2023-01-29T03:14:10.456Z,889.97
2023-01-29T03:16:49.978Z,878.90
2023-01-29T03:19:20.733Z,884.22
2023-01-29T03:22:00.396Z,885.30
2023-01-29T03:25:04.218Z,880.22
2023-01-29T03:27:56.339Z,888.23
2023-01-29T03:30:44.425Z,882.25
2023-01-29T03:34:00.106Z,888.30
2023-01-29T03:36:39.587Z,876.07
2023-01-29T03:39:07.426Z,890.63
2023-01-29T03:41:52.763Z,875.28
2023-01-29T03:44:30.725Z,877.33
2023-01-29T03:47:18.459Z,877.97
2023-01-29T03:49:50.998Z,904.80
2023-01-29T03:52:23.488Z,910.85
2023-01-29T03:55:10.594Z,906.08
2023-01-29T03:57:45.671Z,913.53
2023-01-29T04:00:22.801Z,894.92
2023-01-29T04:03:09.813Z,901.30
2023-01-29T04:05:52.721Z,900.30
2023-01-29T04:08:29.387Z,906.08
2023-01-29T04:11:00.224Z,887.33
2023-01-29T04:13:27.236Z,883.90
2023-01-29T04:15:56.875Z,882.95
2023-01-29T04:18:50.828Z,882.38
2023-01-29T04:21:22.784Z,886.87
2023-01-29T04:23:49.356Z,892.05
2023-01-29T04:26:25.301Z,888.60
2023-01-29T04:29:22.009Z,886.08
2023-01-29T04:32:34.222Z,890.65
2023-01-29T04:35:08.950Z,885.95
2023-01-29T04:37:41.458Z,886.07
2023-01-29T04:40:19.135Z,878.30
2023-01-29T04:42:53.478Z,882.10
2023-01-29T04:45:28.582Z,874.45
2023-01-29T04:48:00.668Z,881.03
2023-01-29T04:50:35.740Z,876.42
2023-01-29T04:53:09.427Z,876.20
2023-01-29T04:55:43.780Z,874.63
2023-01-29T04:58:16.823Z,876.30
2023-01-29T05:00:44.689Z,872.80
2023-01-29T05:03:14.133Z,880.38
2023-01-29T05:05:42.935Z,875.13
2023-01-29T05:08:11.781Z,881.50
2023-01-29T05:10:38.957Z,880.13
2023-01-29T05:13:07.948Z,875.67
2023-01-29T05:15:38.519Z,879.60
2023-01-29T05:18:08.743Z,879.57
2023-01-29T05:20:37.844Z,882.63
2023-01-29T05:23:04.479Z,880.03
2023-01-29T05:25:32.894Z,877.90
2023-01-29T05:28:06.420Z,883.63
2023-01-29T05:30:35.048Z,873.30
2023-01-29T05:33:02.071Z,881.38
2023-01-29T05:35:28.777Z,874.50
2023-01-29T05:37:59.493Z,887.92
2023-01-29T05:40:26.103Z,886.22
2023-01-29T05:42:52.684Z,878.35
2023-01-29T05:45:19.722Z,899.10
2023-01-29T05:47:46.806Z,876.55
2023-01-29T05:50:14.283Z,884.13
2023-01-29T05:52:41.033Z,877.33
2023-01-29T05:55:09.575Z,886.40
2023-01-29T05:57:36.212Z,873.42
2023-01-29T06:00:04.422Z,855.85
2023-01-29T06:02:39.096Z,863.78
2023-01-29T06:05:05.837Z,879.53
2023-01-29T06:07:32.416Z,878.03
2023-01-29T06:09:58.997Z,881.67
2023-01-29T06:12:27.153Z,877.05
2023-01-29T06:14:53.681Z,883.05
2023-01-29T06:17:20.210Z,879.85
2023-01-29T06:19:46.766Z,895.22
2023-01-29T06:22:13.322Z,892.78
2023-01-29T06:24:39.888Z,888.85
2023-01-29T06:27:06.905Z,894.03
2023-01-29T06:29:33.494Z,889.92
2023-01-29T06:32:00.111Z,891.80
2023-01-29T06:34:26.776Z,898.83
2023-01-29T06:36:53.809Z,897.55
2023-01-29T06:39:20.325Z,894.83
2023-01-29T06:41:46.950Z,900.73
2023-01-29T06:44:13.687Z,900.95
2023-01-29T06:46:40.732Z,893.22
2023-01-29T06:49:07.340Z,891.92
2023-01-29T06:51:33.923Z,894.73
2023-01-29T06:54:00.452Z,904.00
2023-01-29T06:56:27.006Z,888.35
2023-01-29T06:58:54.180Z,878.63
2023-01-29T07:01:36.887Z,884.30
2023-01-29T07:04:03.835Z,894.83
2023-01-29T07:06:30.545Z,889.97
2023-01-29T07:08:57.108Z,888.25
2023-01-29T07:11:23.728Z,882.10
2023-01-29T07:13:50.275Z,887.97
2023-01-29T07:16:17.092Z,887.45
2023-01-29T07:18:43.705Z,886.80
2023-01-29T07:21:10.296Z,895.70
2023-01-29T07:23:37.469Z,891.85
2023-01-29T07:26:05.434Z,886.72
2023-01-29T07:28:32.331Z,877.65
2023-01-29T07:30:59.370Z,880.33
2023-01-29T07:33:26.256Z,883.17
2023-01-29T07:35:53.204Z,878.33
2023-01-29T07:38:19.772Z,884.75
2023-01-29T07:40:46.784Z,873.40
2023-01-29T07:43:13.545Z,884.53
2023-01-29T07:45:40.464Z,881.63
2023-01-29T07:48:09.461Z,881.75
2023-01-29T07:50:36.016Z,881.67
2023-01-29T07:53:02.741Z,885.20
2023-01-29T07:55:29.803Z,890.05
2023-01-29T07:57:58.309Z,868.30
2023-01-29T08:00:25.162Z,871.67
2023-01-29T08:02:52.374Z,868.33
2023-01-29T08:05:19.028Z,867.35
2023-01-29T08:07:49.359Z,872.10
2023-01-29T08:10:23.865Z,867.70
2023-01-29T08:12:58.679Z,873.63
2023-01-29T08:15:25.746Z,876.47
2023-01-29T08:17:57.956Z,877.50
2023-01-29T08:20:39.772Z,882.00
2023-01-29T08:23:09.473Z,874.33
2023-01-29T08:25:36.182Z,876.22
2023-01-29T08:28:02.842Z,875.25
2023-01-29T08:30:31.599Z,874.90
2023-01-29T08:32:58.364Z,899.80
2023-01-29T08:35:25.340Z,891.45
2023-01-29T08:38:02.304Z,889.80
2023-01-29T08:40:33.827Z,893.22
2023-01-29T08:43:02.701Z,900.72
2023-01-29T08:45:30.827Z,901.03
2023-01-29T08:47:57.423Z,900.23
2023-01-29T08:50:24.000Z,896.75
2023-01-29T08:52:50.695Z,901.60
2023-01-29T08:55:18.735Z,902.13
2023-01-29T08:57:45.820Z,896.92
2023-01-29T09:00:13.161Z,895.88
2023-01-29T09:02:39.794Z,883.10
2023-01-29T09:05:07.230Z,894.28
2023-01-29T09:07:34.066Z,898.60
2023-01-29T09:10:02.874Z,903.80
2023-01-29T09:12:30.047Z,897.77
2023-01-29T09:14:56.581Z,903.60
2023-01-29T09:17:23.201Z,895.50
2023-01-29T09:19:49.814Z,902.13
2023-01-29T09:22:16.346Z,908.35
2023-01-29T09:24:43.304Z,902.05
2023-01-29T09:27:10.867Z,902.53
2023-01-29T09:29:37.729Z,897.30
2023-01-29T09:32:05.031Z,901.63
2023-01-29T09:34:33.654Z,894.60
2023-01-29T09:37:00.238Z,895.47
2023-01-29T09:39:26.990Z,898.80
2023-01-29T09:42:00.409Z,900.50
2023-01-29T09:44:47.432Z,891.90
2023-01-29T09:47:16.229Z,892.55
2023-01-29T09:49:47.312Z,896.20
2023-01-29T09:52:35.423Z,903.53
2023-01-29T09:55:29.381Z,905.83
2023-01-29T09:58:01.525Z,908.10
2023-01-29T10:00:40.512Z,920.20
2023-01-29T10:03:26.009Z,922.80
2023-01-29T10:06:30.164Z,933.40
2023-01-29T10:08:59.765Z,936.03
2023-01-29T10:11:44.842Z,933.10
2023-01-29T10:14:53.845Z,935.28
2023-01-29T10:17:44.279Z,935.03
2023-01-29T10:20:55.138Z,936.10
2023-01-29T10:23:29.442Z,940.78
2023-01-29T10:25:56.069Z,934.05
2023-01-29T10:28:29.442Z,940.80
2023-01-29T10:31:12.432Z,936.30
2023-01-29T10:34:02.491Z,941.25
2023-01-29T10:36:36.487Z,989.40
2023-01-29T10:39:03.155Z,971.20
2023-01-29T10:41:38.477Z,972.75
2023-01-29T10:44:44.097Z,969.42
2023-01-29T10:47:26.125Z,978.85
2023-01-29T10:50:15.054Z,970.65
2023-01-29T10:52:50.602Z,969.43
2023-01-29T10:55:39.805Z,968.93
2023-01-29T10:58:31.884Z,968.15
2023-01-29T11:00:58.739Z,967.00
2023-01-29T11:03:33.467Z,969.70
2023-01-29T11:11:17.864Z,964.80
2023-01-29T11:14:08.934Z,968.77
2023-01-29T11:16:43.543Z,973.22
2023-01-29T11:19:10.708Z,970.57
2023-01-29T11:21:57.635Z,971.77
2023-01-29T11:24:24.885Z,975.80
2023-01-29T11:26:58.519Z,972.00
2023-01-29T11:29:39.968Z,974.60
2023-01-29T11:32:34.361Z,974.33
2023-01-29T11:37:39.910Z,982.90
2023-01-29T11:47:56.059Z,977.40
2023-01-29T11:50:25.539Z,986.65
2023-01-29T11:52:52.333Z,967.00
2023-01-29T11:55:22.030Z,969.27
2023-01-29T11:57:51.682Z,960.60
2023-01-29T12:00:27.036Z,966.40
2023-01-29T12:03:05.239Z,959.08
2023-01-29T12:05:31.780Z,955.65
2023-01-29T12:08:00.779Z,957.77
2023-01-29T12:10:35.480Z,955.03
2023-01-29T12:13:11.100Z,955.83
2023-01-29T12:15:38.889Z,954.40
2023-01-29T12:18:30.391Z,953.17
2023-01-29T12:21:05.739Z,953.75
2023-01-29T12:23:57.396Z,949.60
2023-01-29T12:26:27.902Z,949.78
2023-01-29T12:29:15.902Z,954.03
2023-01-29T12:31:50.502Z,956.55
2023-01-29T12:34:19.768Z,955.95
2023-01-29T12:37:31.230Z,948.90
2023-01-29T12:39:57.759Z,948.05
2023-01-29T12:42:24.509Z,954.40
2023-01-29T12:44:55.446Z,948.63
2023-01-29T12:47:31.824Z,952.97
2023-01-29T12:50:03.437Z,954.88
2023-01-29T12:52:54.467Z,956.10
2023-01-29T12:55:32.271Z,990.85
2023-01-29T12:58:01.152Z,991.85
2023-01-29T13:00:48.671Z,992.40
2023-01-29T13:03:29.537Z,999.95
2023-01-29T13:11:27.140Z,996.00
2023-01-29T13:14:04.444Z,999.40
2023-01-29T13:16:37.871Z,985.90
2023-01-29T13:19:15.295Z,995.53
2023-01-29T13:21:43.822Z,983.90
2023-01-29T13:26:39.163Z,984.95
2023-01-29T13:29:06.109Z,988.23
2023-01-29T13:31:38.966Z,980.30
2023-01-29T13:34:28.333Z,972.72
2023-01-29T13:36:56.929Z,976.97
2023-01-29T13:39:27.683Z,989.25
2023-01-29T13:41:55.536Z,983.55
2023-01-29T13:44:24.284Z,1002.40
2023-01-29T13:46:59.185Z,998.10
2023-01-29T13:49:37.808Z,1025.67
2023-01-29T13:52:28.624Z,1015.38
2023-01-29T13:54:58.279Z,1004.10
2023-01-29T13:57:43.696Z,1009.70
2023-01-29T14:00:22.530Z,999.35
2023-01-29T14:02:54.930Z,980.63
2023-01-29T14:05:30.646Z,989.70
2023-01-29T14:08:06.106Z,992.30
2023-01-29T14:10:33.935Z,991.70
2023-01-29T14:13:03.439Z,983.03
2023-01-29T14:15:34.974Z,989.75
2023-01-29T14:18:10.849Z,980.70
2023-01-29T14:20:46.098Z,978.60
2023-01-29T14:23:41.967Z,978.25
2023-01-29T14:26:28.933Z,975.03
2023-01-29T14:29:03.223Z,978.20
2023-01-29T14:31:52.368Z,980.28
2023-01-29T14:34:31.550Z,978.92
2023-01-29T14:37:04.014Z,971.33
2023-01-29T14:39:51.645Z,978.85
2023-01-29T14:42:29.017Z,980.72
2023-01-29T14:44:55.434Z,977.45
2023-01-29T14:47:28.044Z,983.63
2023-01-29T14:55:09.153Z,997.40
2023-01-29T15:00:19.165Z,981.50
2023-01-29T15:02:46.329Z,985.00
2023-01-29T15:05:20.929Z,982.05
2023-01-29T15:07:52.467Z,974.00
2023-01-29T15:10:23.021Z,970.65
2023-01-29T15:13:07.876Z,980.25
2023-01-29T15:15:52.657Z,949.70
2023-01-29T15:18:23.490Z,957.08
2023-01-29T15:20:49.995Z,957.30
2023-01-29T15:23:25.751Z,962.30
2023-01-29T15:25:54.668Z,959.60
2023-01-29T15:28:21.324Z,974.10
2023-01-29T15:30:53.521Z,961.50
2023-01-29T15:35:49.874Z,958.30
2023-01-29T15:38:21.560Z,968.10
2023-01-29T15:48:33.116Z,961.20
2023-01-29T15:50:59.927Z,964.90
2023-01-29T15:56:02.233Z,959.40
2023-01-29T16:05:51.948Z,960.10
2023-01-29T16:08:18.836Z,949.20
2023-01-29T16:18:35.961Z,944.95
2023-01-29T16:21:12.887Z,939.90
2023-01-29T16:23:45.099Z,938.10
2023-01-29T16:31:10.530Z,928.60
2023-01-29T16:41:06.715Z,923.50
2023-01-29T16:48:45.369Z,919.80
2023-01-29T16:51:26.569Z,918.75
2023-01-29T16:54:01.176Z,920.35
2023-01-29T16:56:30.465Z,933.40
2023-01-29T16:58:57.299Z,930.30
2023-01-29T17:04:07.619Z,925.80
2023-01-29T17:09:01.188Z,919.40
2023-01-29T17:14:05.325Z,872.77
2023-01-29T17:16:34.550Z,871.25
2023-01-29T17:19:01.329Z,864.92
2023-01-29T17:21:28.942Z,864.40
2023-01-29T17:23:55.545Z,856.90
2023-01-29T17:26:23.197Z,861.08
2023-01-29T17:28:50.620Z,856.33
2023-01-29T17:31:17.268Z,859.67
2023-01-29T17:33:44.661Z,852.97
2023-01-29T17:36:14.528Z,855.75
2023-01-29T17:38:41.416Z,855.67
2023-01-29T17:41:24.887Z,856.03
2023-01-29T17:43:51.818Z,853.55
2023-01-29T17:46:18.671Z,852.73
2023-01-29T17:48:45.651Z,848.67
2023-01-29T17:51:16.630Z,849.72
2023-01-29T17:53:46.225Z,847.20
2023-01-29T17:56:27.428Z,846.70
2023-01-29T17:58:54.039Z,844.05
2023-01-29T18:01:20.683Z,846.35
2023-01-29T18:03:47.304Z,843.83
2023-01-29T18:06:26.208Z,847.72
2023-01-29T18:08:52.810Z,846.40
2023-01-29T18:11:19.380Z,845.30
2023-01-29T18:13:46.239Z,854.53
2023-01-29T18:16:12.779Z,863.65
2023-01-29T18:18:40.376Z,862.83
2023-01-29T18:21:07.936Z,854.63
2023-01-29T18:23:34.562Z,852.42
2023-01-29T18:26:01.220Z,856.75
2023-01-29T18:28:27.799Z,856.92
2023-01-29T18:30:54.372Z,855.40
2023-01-29T18:33:21.068Z,853.08
2023-01-29T18:35:50.528Z,854.53
2023-01-29T18:38:17.435Z,851.03
2023-01-29T18:40:44.076Z,856.25
2023-01-29T18:43:10.594Z,856.45
2023-01-29T18:45:37.220Z,853.43
2023-01-29T18:48:03.917Z,846.97
2023-01-29T18:50:30.665Z,848.67
2023-01-29T18:52:57.286Z,846.08
2023-01-29T18:55:24.455Z,845.95
2023-01-29T18:58:33.980Z,844.67
2023-01-29T19:00:41.979Z,841.95
2023-01-29T19:03:08.519Z,850.17
2023-01-29T19:05:35.098Z,848.17
2023-01-29T19:08:01.956Z,841.40
2023-01-29T19:10:28.523Z,842.77
2023-01-29T19:12:55.042Z,840.90
2023-01-29T19:15:22.717Z,843.58
2023-01-29T19:17:50.546Z,838.97
2023-01-29T19:20:17.644Z,846.85
2023-01-29T19:22:44.231Z,837.28
2023-01-29T19:25:10.869Z,842.47
2023-01-29T19:27:37.714Z,839.28
2023-01-29T19:30:05.807Z,840.78
2023-01-29T19:32:32.715Z,840.15
2023-01-29T19:34:59.271Z,834.15
2023-01-29T19:37:26.062Z,836.92
2023-01-29T19:39:53.818Z,835.88
2023-01-29T19:42:20.942Z,841.65
2023-01-29T19:44:47.717Z,837.60
2023-01-29T19:47:14.299Z,836.83
2023-01-29T19:49:40.901Z,834.65
2023-01-29T19:52:14.889Z,829.83
2023-01-29T19:54:46.596Z,834.35
2023-01-29T19:57:13.257Z,834.33
2023-01-29T19:59:39.879Z,834.25
2023-01-29T20:02:06.603Z,834.47
2023-01-29T20:04:33.283Z,835.40
2023-01-29T20:07:00.324Z,831.53
2023-01-29T20:09:29.341Z,832.60
2023-01-29T20:11:55.853Z,826.58
2023-01-29T20:14:22.486Z,835.42
2023-01-29T20:16:49.025Z,828.47
2023-01-29T20:19:16.344Z,829.28
2023-01-29T20:21:45.781Z,825.58
2023-01-29T20:24:12.957Z,826.27
2023-01-29T20:26:39.811Z,829.10
2023-01-29T20:29:06.570Z,830.58
2023-01-29T20:31:33.274Z,830.90
2023-01-29T20:33:59.873Z,829.22
2023-01-29T20:36:26.473Z,830.00
2023-01-29T20:38:53.034Z,825.53
2023-01-29T20:41:19.909Z,830.22
2023-01-29T20:43:47.056Z,826.08
2023-01-29T20:46:13.951Z,825.47
2023-01-29T20:48:42.050Z,823.67
2023-01-29T20:51:13.038Z,822.92
2023-01-29T20:53:44.268Z,824.67
2023-01-29T20:56:11.403Z,834.77
2023-01-29T20:58:38.180Z,818.57
2023-01-29T21:01:11.917Z,818.42
2023-01-29T21:03:39.413Z,814.67
2023-01-29T21:06:06.791Z,813.90
2023-01-29T21:08:33.556Z,814.42
2023-01-29T21:11:00.135Z,813.55
2023-01-29T21:13:26.700Z,814.93
2023-01-29T21:15:53.303Z,813.38
2023-01-29T21:18:26.124Z,811.92
2023-01-29T21:21:19.173Z,804.78
2023-01-29T21:24:18.213Z,805.97
2023-01-29T21:26:51.666Z,811.10
2023-01-29T21:29:31.363Z,813.63
2023-01-29T21:32:17.539Z,810.57
2023-01-29T21:35:08.113Z,812.63
2023-01-29T21:37:45.733Z,810.67
2023-01-29T21:40:47.456Z,813.10
2023-01-29T21:43:23.381Z,811.55
2023-01-29T21:46:16.609Z,805.92
2023-01-29T21:48:53.560Z,807.85
2023-01-29T21:51:27.631Z,810.27
2023-01-29T21:54:07.070Z,801.70
2023-01-29T21:56:48.865Z,808.03
2023-01-29T21:59:41.505Z,807.70
2023-01-29T22:02:17.574Z,801.78
2023-01-29T22:04:53.006Z,819.03
2023-01-29T22:07:24.331Z,836.05
2023-01-29T22:09:56.726Z,844.30
2023-01-29T22:12:30.689Z,845.83
2023-01-29T22:15:11.936Z,854.95
2023-01-29T22:17:57.897Z,853.70
2023-01-29T22:20:31.404Z,849.33
2023-01-29T22:23:18.109Z,847.88
2023-01-29T22:26:08.524Z,851.97
2023-01-29T22:28:41.914Z,850.10
2023-01-29T22:31:13.766Z,853.57
2023-01-29T22:34:22.147Z,852.07
2023-01-29T22:37:01.957Z,848.80
2023-01-29T22:39:44.354Z,847.45
2023-01-29T22:42:17.494Z,850.47
2023-01-29T22:44:57.979Z,846.40
2023-01-29T22:47:39.156Z,845.42
2023-01-29T22:50:07.530Z,847.87
2023-01-29T22:52:43.593Z,748.25
2023-01-29T22:55:18.243Z,754.83
2023-01-29T22:58:15.374Z,751.00
2023-01-29T23:01:04.662Z,165.38
2023-01-29T23:04:06.844Z,550.20
2023-01-29T23:06:48.604Z,726.35
2023-01-29T23:09:23.346Z,697.00
2023-01-29T23:12:02.721Z,749.22
2023-01-29T23:14:42.418Z,743.78
2023-01-29T23:17:18.075Z,744.92
2023-01-29T23:20:08.053Z,746.70
2023-01-29T23:23:00.228Z,752.37
2023-01-29T23:25:54.438Z,759.15
2023-01-29T23:28:20.983Z,762.07
2023-01-29T23:30:47.903Z,766.97
2023-01-29T23:33:14.762Z,761.13
2023-01-29T23:35:41.687Z,758.22
2023-01-29T23:38:08.208Z,757.38
2023-01-29T23:40:34.744Z,756.65
2023-01-29T23:43:01.424Z,756.90
2023-01-29T23:45:27.953Z,761.33
2023-01-29T23:47:54.452Z,752.58
2023-01-29T23:50:20.975Z,752.53
2023-01-29T23:52:47.517Z,744.00
2023-01-29T23:55:14.033Z,749.33
2023-01-29T23:57:40.590Z,750.23
